sensor_id;sensor_type;location;lat;lon;timestamp;pressure;altitude;pressure_sealevel;temperature;humidity
80988;BME280;70452;39.386;-3.210;2024-01-11T00:00:02;94286.03;;;4.25;100.00
80988;BME280;70452;39.386;-3.210;2024-01-11T00:02:34;94296.06;;;4.29;100.00
80988;BME280;70452;39.386;-3.210;2024-01-11T00:05:07;94287.50;;;4.32;100.00
80988;BME280;70452;39.386;-3.210;2024-01-11T00:07:47;94286.13;;;4.30;100.00
80988;BME280;70452;39.386;-3.210;2024-01-11T00:10:25;94286.69;;;4.32;100.00
80988;BME280;70452;39.386;-3.210;2024-01-11T00:13:06;94274.06;;;4.21;100.00
80988;BME280;70452;39.386;-3.210;2024-01-11T00:15:44;94288.97;;;4.23;100.00
80988;BME280;70452;39.386;-3.210;2024-01-11T00:18:41;94287.63;;;4.26;100.00
80988;BME280;70452;39.386;-3.210;2024-01-11T00:21:14;94285.78;;;4.26;100.00
80988;BME280;70452;39.386;-3.210;2024-01-11T00:23:55;94291.19;;;4.26;100.00
80988;BME280;70452;39.386;-3.210;2024-01-11T00:26:27;94297.09;;;4.11;100.00
80988;BME280;70452;39.386;-3.210;2024-01-11T00:28:59;94297.56;;;4.08;100.00
80988;BME280;70452;39.386;-3.210;2024-01-11T00:31:28;94284.47;;;4.00;100.00
80988;BME280;70452;39.386;-3.210;2024-01-11T00:34:07;94288.34;;;4.04;100.00
80988;BME280;70452;39.386;-3.210;2024-01-11T00:36:42;94282.34;;;4.02;100.00
80988;BME280;70452;39.386;-3.210;2024-01-11T00:39:16;94278.81;;;4.02;100.00
80988;BME280;70452;39.386;-3.210;2024-01-11T00:41:50;94273.25;;;3.91;100.00
80988;BME280;70452;39.386;-3.210;2024-01-11T00:44:42;94274.16;;;3.97;100.00
80988;BME280;70452;39.386;-3.210;2024-01-11T00:47:14;94275.72;;;3.81;100.00
80988;BME280;70452;39.386;-3.210;2024-01-11T00:49:47;94276.31;;;3.83;100.00
80988;BME280;70452;39.386;-3.210;2024-01-11T00:52:37;94270.13;;;3.71;100.00
80988;BME280;70452;39.386;-3.210;2024-01-11T00:55:08;94273.91;;;3.70;100.00
80988;BME280;70452;39.386;-3.210;2024-01-11T00:57:45;94273.16;;;3.74;100.00
80988;BME280;70452;39.386;-3.210;2024-01-11T01:00:35;94279.06;;;3.71;100.00
80988;BME280;70452;39.386;-3.210;2024-01-11T01:03:10;94277.50;;;3.75;100.00
80988;BME280;70452;39.386;-3.210;2024-01-11T01:05:50;94277.41;;;3.70;100.00
80988;BME280;70452;39.386;-3.210;2024-01-11T01:08:25;94276.97;;;3.62;100.00
80988;BME280;70452;39.386;-3.210;2024-01-11T01:11:02;94281.28;;;3.63;100.00
80988;BME280;70452;39.386;-3.210;2024-01-11T01:13:32;94268.31;;;3.48;100.00
80988;BME280;70452;39.386;-3.210;2024-01-11T01:16:09;94281.44;;;3.56;100.00
80988;BME280;70452;39.386;-3.210;2024-01-11T01:18:40;94280.94;;;3.59;100.00
80988;BME280;70452;39.386;-3.210;2024-01-11T01:21:09;94287.88;;;3.55;100.00
80988;BME280;70452;39.386;-3.210;2024-01-11T01:24:05;94281.06;;;3.52;100.00
80988;BME280;70452;39.386;-3.210;2024-01-11T01:26:39;94290.47;;;3.50;100.00
80988;BME280;70452;39.386;-3.210;2024-01-11T01:29:19;94292.59;;;3.48;100.00
80988;BME280;70452;39.386;-3.210;2024-01-11T01:31:44;94296.69;;;3.38;100.00
80988;BME280;70452;39.386;-3.210;2024-01-11T01:34:23;94298.22;;;3.34;100.00
80988;BME280;70452;39.386;-3.210;2024-01-11T01:36:57;94293.41;;;3.36;100.00
80988;BME280;70452;39.386;-3.210;2024-01-11T01:39:36;94296.81;;;3.32;100.00
80988;BME280;70452;39.386;-3.210;2024-01-11T01:42:02;94293.97;;;3.38;100.00
80988;BME280;70452;39.386;-3.210;2024-01-11T01:44:36;94290.72;;;3.36;100.00
80988;BME280;70452;39.386;-3.210;2024-01-11T01:47:10;94293.63;;;3.35;100.00
80988;BME280;70452;39.386;-3.210;2024-01-11T01:49:46;94291.16;;;3.33;100.00
80988;BME280;70452;39.386;-3.210;2024-01-11T01:52:25;94297.63;;;3.32;100.00
80988;BME280;70452;39.386;-3.210;2024-01-11T01:54:57;94291.66;;;3.30;100.00
80988;BME280;70452;39.386;-3.210;2024-01-11T01:57:25;94287.09;;;3.31;100.00
80988;BME280;70452;39.386;-3.210;2024-01-11T01:59:54;94289.09;;;3.35;100.00
80988;BME280;70452;39.386;-3.210;2024-01-11T02:02:28;94291.44;;;3.32;100.00
80988;BME280;70452;39.386;-3.210;2024-01-11T02:05:05;94293.75;;;3.28;100.00
80988;BME280;70452;39.386;-3.210;2024-01-11T02:07:38;94291.31;;;3.27;100.00
80988;BME280;70452;39.386;-3.210;2024-01-11T02:10:19;94296.44;;;3.28;100.00
80988;BME280;70452;39.386;-3.210;2024-01-11T02:12:51;94307.81;;;3.42;100.00
80988;BME280;70452;39.386;-3.210;2024-01-11T02:15:20;94298.91;;;3.42;100.00
80988;BME280;70452;39.386;-3.210;2024-01-11T02:17:55;94310.63;;;3.47;100.00
80988;BME280;70452;39.386;-3.210;2024-01-11T02:20:35;94304.50;;;3.52;100.00
80988;BME280;70452;39.386;-3.210;2024-01-11T02:26:06;94293.28;;;3.31;100.00
80988;BME280;70452;39.386;-3.210;2024-01-11T02:28:37;94289.31;;;3.34;100.00
80988;BME280;70452;39.386;-3.210;2024-01-11T02:31:15;94289.41;;;3.51;100.00
80988;BME280;70452;39.386;-3.210;2024-01-11T02:33:54;94298.78;;;3.48;100.00
80988;BME280;70452;39.386;-3.210;2024-01-11T02:36:32;94312.50;;;3.47;100.00
80988;BME280;70452;39.386;-3.210;2024-01-11T02:39:04;94299.94;;;3.52;100.00
80988;BME280;70452;39.386;-3.210;2024-01-11T02:41:41;94305.47;;;3.46;100.00
80988;BME280;70452;39.386;-3.210;2024-01-11T02:44:16;94305.03;;;3.37;100.00
80988;BME280;70452;39.386;-3.210;2024-01-11T02:46:45;94313.81;;;3.32;100.00
80988;BME280;70452;39.386;-3.210;2024-01-11T02:49:24;94312.16;;;3.31;100.00
80988;BME280;70452;39.386;-3.210;2024-01-11T02:51:58;94308.75;;;3.24;100.00
80988;BME280;70452;39.386;-3.210;2024-01-11T02:54:27;94315.69;;;3.32;100.00
80988;BME280;70452;39.386;-3.210;2024-01-11T02:56:58;94317.88;;;3.23;100.00
80988;BME280;70452;39.386;-3.210;2024-01-11T02:59:49;94315.56;;;3.27;100.00
80988;BME280;70452;39.386;-3.210;2024-01-11T03:02:36;94315.91;;;3.18;100.00
80988;BME280;70452;39.386;-3.210;2024-01-11T03:05:02;94318.72;;;3.24;100.00
80988;BME280;70452;39.386;-3.210;2024-01-11T03:07:36;94318.59;;;3.30;100.00
80988;BME280;70452;39.386;-3.210;2024-01-11T03:10:08;94315.19;;;3.35;100.00
80988;BME280;70452;39.386;-3.210;2024-01-11T03:12:41;94312.38;;;3.42;100.00
80988;BME280;70452;39.386;-3.210;2024-01-11T03:15:29;94305.59;;;3.51;100.00
80988;BME280;70452;39.386;-3.210;2024-01-11T03:18:01;94315.06;;;3.53;100.00
80988;BME280;70452;39.386;-3.210;2024-01-11T03:20:38;94308.13;;;3.57;100.00
80988;BME280;70452;39.386;-3.210;2024-01-11T03:23:14;94310.25;;;3.55;100.00
80988;BME280;70452;39.386;-3.210;2024-01-11T03:25:52;94309.91;;;3.52;100.00
80988;BME280;70452;39.386;-3.210;2024-01-11T03:28:26;94311.56;;;3.53;100.00
80988;BME280;70452;39.386;-3.210;2024-01-11T03:31:00;94307.78;;;3.54;100.00
80988;BME280;70452;39.386;-3.210;2024-01-11T03:33:32;94312.94;;;3.55;100.00
80988;BME280;70452;39.386;-3.210;2024-01-11T03:36:11;94320.78;;;3.57;100.00
80988;BME280;70452;39.386;-3.210;2024-01-11T03:38:40;94313.53;;;3.57;100.00
80988;BME280;70452;39.386;-3.210;2024-01-11T03:41:14;94308.38;;;3.56;100.00
80988;BME280;70452;39.386;-3.210;2024-01-11T03:43:43;94317.19;;;3.51;100.00
80988;BME280;70452;39.386;-3.210;2024-01-11T03:46:31;94316.59;;;3.49;100.00
80988;BME280;70452;39.386;-3.210;2024-01-11T03:49:03;94313.56;;;3.34;100.00
80988;BME280;70452;39.386;-3.210;2024-01-11T03:51:43;94309.56;;;3.36;100.00
80988;BME280;70452;39.386;-3.210;2024-01-11T03:54:17;94299.38;;;3.38;100.00
80988;BME280;70452;39.386;-3.210;2024-01-11T03:56:55;94301.03;;;3.40;100.00
80988;BME280;70452;39.386;-3.210;2024-01-11T03:59:24;94300.91;;;3.34;100.00
80988;BME280;70452;39.386;-3.210;2024-01-11T04:02:00;94297.84;;;3.43;100.00
80988;BME280;70452;39.386;-3.210;2024-01-11T04:04:32;94295.97;;;3.31;100.00
80988;BME280;70452;39.386;-3.210;2024-01-11T04:07:06;94292.72;;;3.29;100.00
80988;BME280;70452;39.386;-3.210;2024-01-11T04:09:40;94287.69;;;3.21;100.00
80988;BME280;70452;39.386;-3.210;2024-01-11T04:12:15;94289.78;;;3.07;100.00
80988;BME280;70452;39.386;-3.210;2024-01-11T04:14:49;94283.81;;;2.81;100.00
80988;BME280;70452;39.386;-3.210;2024-01-11T04:17:20;94300.91;;;2.75;100.00
80988;BME280;70452;39.386;-3.210;2024-01-11T04:19:59;94295.66;;;2.80;100.00
80988;BME280;70452;39.386;-3.210;2024-01-11T04:22:36;94293.19;;;2.79;100.00
80988;BME280;70452;39.386;-3.210;2024-01-11T04:25:11;94292.34;;;2.78;100.00
80988;BME280;70452;39.386;-3.210;2024-01-11T04:27:44;94296.44;;;2.69;100.00
80988;BME280;70452;39.386;-3.210;2024-01-11T04:30:13;94300.19;;;2.80;100.00
80988;BME280;70452;39.386;-3.210;2024-01-11T04:35:46;94303.63;;;2.87;100.00
80988;BME280;70452;39.386;-3.210;2024-01-11T04:38:39;94305.13;;;2.83;100.00
80988;BME280;70452;39.386;-3.210;2024-01-11T04:41:15;94303.75;;;2.92;100.00
80988;BME280;70452;39.386;-3.210;2024-01-11T04:43:52;94318.25;;;2.91;100.00
80988;BME280;70452;39.386;-3.210;2024-01-11T04:46:25;94318.69;;;2.88;100.00
80988;BME280;70452;39.386;-3.210;2024-01-11T04:48:57;94320.22;;;2.84;100.00
80988;BME280;70452;39.386;-3.210;2024-01-11T04:51:35;94316.00;;;2.76;100.00
80988;BME280;70452;39.386;-3.210;2024-01-11T04:54:15;94313.41;;;2.58;100.00
80988;BME280;70452;39.386;-3.210;2024-01-11T04:56:46;94323.44;;;2.62;100.00
80988;BME280;70452;39.386;-3.210;2024-01-11T04:59:27;94314.44;;;2.57;100.00
80988;BME280;70452;39.386;-3.210;2024-01-11T05:02:04;94310.72;;;2.58;100.00
80988;BME280;70452;39.386;-3.210;2024-01-11T05:05:11;94315.00;;;2.47;100.00
80988;BME280;70452;39.386;-3.210;2024-01-11T05:07:46;94320.94;;;2.49;100.00
80988;BME280;70452;39.386;-3.210;2024-01-11T05:10:39;94327.09;;;2.56;100.00
80988;BME280;70452;39.386;-3.210;2024-01-11T05:13:19;94319.41;;;2.72;100.00
80988;BME280;70452;39.386;-3.210;2024-01-11T05:15:48;94320.91;;;2.79;100.00
80988;BME280;70452;39.386;-3.210;2024-01-11T05:18:29;94320.41;;;2.59;100.00
80988;BME280;70452;39.386;-3.210;2024-01-11T05:21:07;94332.47;;;2.56;100.00
80988;BME280;70452;39.386;-3.210;2024-01-11T05:23:36;94319.28;;;2.36;100.00
80988;BME280;70452;39.386;-3.210;2024-01-11T05:26:08;94325.22;;;2.27;100.00
80988;BME280;70452;39.386;-3.210;2024-01-11T05:28:40;94329.09;;;2.31;100.00
80988;BME280;70452;39.386;-3.210;2024-01-11T05:31:21;94329.84;;;2.38;100.00
80988;BME280;70452;39.386;-3.210;2024-01-11T05:33:53;94330.28;;;2.35;100.00
80988;BME280;70452;39.386;-3.210;2024-01-11T05:36:33;94333.25;;;2.45;100.00
80988;BME280;70452;39.386;-3.210;2024-01-11T05:38:59;94334.28;;;2.44;100.00
80988;BME280;70452;39.386;-3.210;2024-01-11T05:41:37;94344.34;;;2.49;100.00
80988;BME280;70452;39.386;-3.210;2024-01-11T05:44:11;94344.91;;;2.39;100.00
80988;BME280;70452;39.386;-3.210;2024-01-11T05:46:48;94340.91;;;2.30;100.00
80988;BME280;70452;39.386;-3.210;2024-01-11T05:49:28;94340.91;;;2.30;100.00
80988;BME280;70452;39.386;-3.210;2024-01-11T05:52:00;94343.88;;;2.40;100.00
80988;BME280;70452;39.386;-3.210;2024-01-11T05:54:29;94349.09;;;2.35;100.00
80988;BME280;70452;39.386;-3.210;2024-01-11T05:57:00;94345.38;;;2.36;100.00
80988;BME280;70452;39.386;-3.210;2024-01-11T05:59:46;94348.38;;;2.58;100.00
80988;BME280;70452;39.386;-3.210;2024-01-11T06:02:36;94354.22;;;2.55;100.00
80988;BME280;70452;39.386;-3.210;2024-01-11T06:05:17;94355.28;;;2.66;100.00
80988;BME280;70452;39.386;-3.210;2024-01-11T06:07:50;94348.16;;;2.71;100.00
80988;BME280;70452;39.386;-3.210;2024-01-11T06:10:27;94346.44;;;2.77;100.00
80988;BME280;70452;39.386;-3.210;2024-01-11T06:13:06;94349.59;;;2.74;100.00
80988;BME280;70452;39.386;-3.210;2024-01-11T06:15:42;94355.75;;;2.62;100.00
80988;BME280;70452;39.386;-3.210;2024-01-11T06:18:14;94350.72;;;2.66;100.00
80988;BME280;70452;39.386;-3.210;2024-01-11T06:20:56;94343.59;;;2.60;100.00
80988;BME280;70452;39.386;-3.210;2024-01-11T06:23:29;94346.03;;;2.61;100.00
80988;BME280;70452;39.386;-3.210;2024-01-11T06:25:58;94351.56;;;2.78;100.00
80988;BME280;70452;39.386;-3.210;2024-01-11T06:28:39;94354.50;;;2.77;100.00
80988;BME280;70452;39.386;-3.210;2024-01-11T06:31:17;94344.78;;;2.76;100.00
80988;BME280;70452;39.386;-3.210;2024-01-11T06:33:48;94349.59;;;2.74;100.00
80988;BME280;70452;39.386;-3.210;2024-01-11T06:36:25;94360.00;;;2.70;100.00
80988;BME280;70452;39.386;-3.210;2024-01-11T06:39:01;94355.28;;;2.66;100.00
80988;BME280;70452;39.386;-3.210;2024-01-11T06:41:37;94358.66;;;2.61;100.00
80988;BME280;70452;39.386;-3.210;2024-01-11T06:44:12;94362.28;;;2.55;100.00
80988;BME280;70452;39.386;-3.210;2024-01-11T06:46:51;94372.91;;;2.50;100.00
80988;BME280;70452;39.386;-3.210;2024-01-11T06:49:24;94366.94;;;2.48;100.00
80988;BME280;70452;39.386;-3.210;2024-01-11T06:51:57;94378.16;;;2.44;100.00
80988;BME280;70452;39.386;-3.210;2024-01-11T06:54:29;94382.56;;;2.39;100.00
80988;BME280;70452;39.386;-3.210;2024-01-11T06:57:00;94372.72;;;2.33;100.00
80988;BME280;70452;39.386;-3.210;2024-01-11T06:59:32;94377.31;;;2.32;100.00
80988;BME280;70452;39.386;-3.210;2024-01-11T07:02:11;94380.81;;;2.33;100.00
80988;BME280;70452;39.386;-3.210;2024-01-11T07:04:50;94374.97;;;2.36;100.00
80988;BME280;70452;39.386;-3.210;2024-01-11T07:07:27;94368.53;;;2.37;100.00
80988;BME280;70452;39.386;-3.210;2024-01-11T07:10:04;94369.72;;;2.41;100.00
80988;BME280;70452;39.386;-3.210;2024-01-11T07:12:33;94378.84;;;2.40;100.00
80988;BME280;70452;39.386;-3.210;2024-01-11T07:15:10;94381.66;;;2.45;100.00
80988;BME280;70452;39.386;-3.210;2024-01-11T07:17:50;94382.16;;;2.54;100.00
80988;BME280;70452;39.386;-3.210;2024-01-11T07:20:27;94372.34;;;2.59;100.00
80988;BME280;70452;39.386;-3.210;2024-01-11T07:23:02;94387.59;;;2.66;100.00
80988;BME280;70452;39.386;-3.210;2024-01-11T07:25:28;94394.13;;;2.70;100.00
80988;BME280;70452;39.386;-3.210;2024-01-11T07:28:04;94401.44;;;2.81;100.00
80988;BME280;70452;39.386;-3.210;2024-01-11T07:30:30;94405.31;;;2.85;100.00
80988;BME280;70452;39.386;-3.210;2024-01-11T07:33:02;94405.66;;;2.89;100.00
80988;BME280;70452;39.386;-3.210;2024-01-11T07:35:39;94407.66;;;2.93;100.00
80988;BME280;70452;39.386;-3.210;2024-01-11T07:38:08;94411.78;;;2.96;100.00
80988;BME280;70452;39.386;-3.210;2024-01-11T07:40:42;94414.00;;;2.99;100.00
80988;BME280;70452;39.386;-3.210;2024-01-11T07:43:24;94415.66;;;3.00;100.00
80988;BME280;70452;39.386;-3.210;2024-01-11T07:46:14;94416.22;;;3.02;100.00
80988;BME280;70452;39.386;-3.210;2024-01-11T07:48:45;94413.53;;;3.02;100.00
80988;BME280;70452;39.386;-3.210;2024-01-11T07:51:22;94416.47;;;3.00;100.00
80988;BME280;70452;39.386;-3.210;2024-01-11T07:54:03;94425.38;;;3.01;100.00
80988;BME280;70452;39.386;-3.210;2024-01-11T07:56:44;94420.13;;;3.06;100.00
80988;BME280;70452;39.386;-3.210;2024-01-11T07:59:12;94431.72;;;3.07;100.00
80988;BME280;70452;39.386;-3.210;2024-01-11T08:01:53;94427.94;;;3.08;100.00
80988;BME280;70452;39.386;-3.210;2024-01-11T08:04:30;94436.16;;;3.13;100.00
80988;BME280;70452;39.386;-3.210;2024-01-11T08:06:59;94437.94;;;3.19;100.00
80988;BME280;70452;39.386;-3.210;2024-01-11T08:09:28;94445.47;;;3.29;100.00
80988;BME280;70452;39.386;-3.210;2024-01-11T08:12:06;94437.56;;;3.15;100.00
80988;BME280;70452;39.386;-3.210;2024-01-11T08:14:40;94437.81;;;3.14;100.00
80988;BME280;70452;39.386;-3.210;2024-01-11T08:17:18;94444.34;;;3.18;100.00
80988;BME280;70452;39.386;-3.210;2024-01-11T08:19:55;94451.41;;;3.19;100.00
80988;BME280;70452;39.386;-3.210;2024-01-11T08:22:22;94450.50;;;3.25;100.00
80988;BME280;70452;39.386;-3.210;2024-01-11T08:24:57;94456.09;;;3.24;100.00
80988;BME280;70452;39.386;-3.210;2024-01-11T08:27:22;94452.22;;;3.19;100.00
80988;BME280;70452;39.386;-3.210;2024-01-11T08:29:51;94453.88;;;3.21;100.00
80988;BME280;70452;39.386;-3.210;2024-01-11T08:32:21;94460.53;;;3.18;100.00
80988;BME280;70452;39.386;-3.210;2024-01-11T08:35:02;94465.25;;;3.34;100.00
80988;BME280;70452;39.386;-3.210;2024-01-11T08:37:35;94465.16;;;3.53;100.00
80988;BME280;70452;39.386;-3.210;2024-01-11T08:40:10;94471.84;;;3.62;100.00
80988;BME280;70452;39.386;-3.210;2024-01-11T08:42:44;94475.59;;;3.73;100.00
80988;BME280;70452;39.386;-3.210;2024-01-11T08:45:21;94476.19;;;3.99;100.00
80988;BME280;70452;39.386;-3.210;2024-01-11T08:47:54;94486.72;;;4.00;100.00
80988;BME280;70452;39.386;-3.210;2024-01-11T08:50:22;94487.53;;;4.12;100.00
80988;BME280;70452;39.386;-3.210;2024-01-11T08:53:03;94494.47;;;4.32;100.00
80988;BME280;70452;39.386;-3.210;2024-01-11T08:55:31;94493.75;;;4.37;100.00
80988;BME280;70452;39.386;-3.210;2024-01-11T08:58:05;94504.34;;;4.26;100.00
80988;BME280;70452;39.386;-3.210;2024-01-11T09:03:41;94520.41;;;4.09;100.00
80988;BME280;70452;39.386;-3.210;2024-01-11T09:06:12;94521.56;;;3.66;100.00
80988;BME280;70452;39.386;-3.210;2024-01-11T09:08:55;94521.44;;;3.61;100.00
80988;BME280;70452;39.386;-3.210;2024-01-11T09:11:21;94526.56;;;3.63;100.00
80988;BME280;70452;39.386;-3.210;2024-01-11T09:13:55;94529.75;;;3.60;100.00
80988;BME280;70452;39.386;-3.210;2024-01-11T09:16:22;94533.13;;;3.55;100.00
80988;BME280;70452;39.386;-3.210;2024-01-11T09:21:54;94540.63;;;3.53;100.00
80988;BME280;70452;39.386;-3.210;2024-01-11T09:24:26;94545.00;;;3.24;100.00
80988;BME280;70452;39.386;-3.210;2024-01-11T09:27:01;94549.28;;;3.13;100.00
80988;BME280;70452;39.386;-3.210;2024-01-11T09:29:35;94549.84;;;3.03;100.00
80988;BME280;70452;39.386;-3.210;2024-01-11T09:32:18;94544.78;;;3.25;100.00
80988;BME280;70452;39.386;-3.210;2024-01-11T09:34:47;94550.88;;;3.32;100.00
80988;BME280;70452;39.386;-3.210;2024-01-11T09:37:22;94545.38;;;3.27;100.00
80988;BME280;70452;39.386;-3.210;2024-01-11T09:39:58;94549.81;;;3.33;100.00
80988;BME280;70452;39.386;-3.210;2024-01-11T09:42:27;94553.66;;;3.26;100.00
80988;BME280;70452;39.386;-3.210;2024-01-11T09:45:01;94552.63;;;3.38;100.00
80988;BME280;70452;39.386;-3.210;2024-01-11T09:47:33;94560.34;;;3.65;100.00
80988;BME280;70452;39.386;-3.210;2024-01-11T09:50:02;94559.41;;;3.60;100.00
80988;BME280;70452;39.386;-3.210;2024-01-11T09:52:42;94564.56;;;3.61;100.00
80988;BME280;70452;39.386;-3.210;2024-01-11T09:55:19;94562.56;;;3.68;100.00
80988;BME280;70452;39.386;-3.210;2024-01-11T09:58:02;94568.47;;;3.89;100.00
80988;BME280;70452;39.386;-3.210;2024-01-11T10:00:39;94561.66;;;3.86;100.00
80988;BME280;70452;39.386;-3.210;2024-01-11T10:03:15;94571.53;;;3.50;100.00
80988;BME280;70452;39.386;-3.210;2024-01-11T10:05:47;94563.50;;;3.62;100.00
80988;BME280;70452;39.386;-3.210;2024-01-11T10:08:32;94575.25;;;3.80;100.00
80988;BME280;70452;39.386;-3.210;2024-01-11T10:11:07;94582.44;;;4.09;100.00
80988;BME280;70452;39.386;-3.210;2024-01-11T10:13:45;94578.53;;;3.93;100.00
80988;BME280;70452;39.386;-3.210;2024-01-11T10:16:20;94578.31;;;3.71;100.00
80988;BME280;70452;39.386;-3.210;2024-01-11T10:19:01;94580.28;;;3.76;100.00
80988;BME280;70452;39.386;-3.210;2024-01-11T10:21:35;94584.84;;;3.75;100.00
80988;BME280;70452;39.386;-3.210;2024-01-11T10:24:03;94589.22;;;3.77;100.00
80988;BME280;70452;39.386;-3.210;2024-01-11T10:26:31;94589.00;;;4.02;100.00
80988;BME280;70452;39.386;-3.210;2024-01-11T10:29:06;94586.88;;;3.80;100.00
80988;BME280;70452;39.386;-3.210;2024-01-11T10:31:50;94583.38;;;4.03;100.00
80988;BME280;70452;39.386;-3.210;2024-01-11T10:34:31;94582.56;;;4.38;100.00
80988;BME280;70452;39.386;-3.210;2024-01-11T10:37:05;94580.53;;;4.57;100.00
80988;BME280;70452;39.386;-3.210;2024-01-11T10:39:32;94579.13;;;4.66;100.00
80988;BME280;70452;39.386;-3.210;2024-01-11T10:42:11;94585.91;;;4.93;100.00
80988;BME280;70452;39.386;-3.210;2024-01-11T10:44:46;94586.53;;;5.12;100.00
80988;BME280;70452;39.386;-3.210;2024-01-11T10:47:30;94574.28;;;5.50;100.00
80988;BME280;70452;39.386;-3.210;2024-01-11T10:50:08;94571.22;;;5.75;100.00
80988;BME280;70452;39.386;-3.210;2024-01-11T10:53:03;94559.63;;;6.08;100.00
80988;BME280;70452;39.386;-3.210;2024-01-11T10:55:33;94563.13;;;6.43;100.00
80988;BME280;70452;39.386;-3.210;2024-01-11T10:58:09;94561.09;;;6.72;100.00
80988;BME280;70452;39.386;-3.210;2024-01-11T11:00:52;94552.06;;;6.83;100.00
80988;BME280;70452;39.386;-3.210;2024-01-11T11:03:26;94549.84;;;7.02;100.00
80988;BME280;70452;39.386;-3.210;2024-01-11T11:06:04;94551.19;;;7.49;100.00
80988;BME280;70452;39.386;-3.210;2024-01-11T11:08:39;94543.56;;;7.73;100.00
80988;BME280;70452;39.386;-3.210;2024-01-11T11:11:08;94541.00;;;7.61;100.00
80988;BME280;70452;39.386;-3.210;2024-01-11T11:13:43;94546.75;;;7.38;100.00
80988;BME280;70452;39.386;-3.210;2024-01-11T11:16:15;94545.19;;;7.74;100.00
80988;BME280;70452;39.386;-3.210;2024-01-11T11:18:50;94534.16;;;7.54;100.00
80988;BME280;70452;39.386;-3.210;2024-01-11T11:21:26;94542.78;;;7.50;100.00
80988;BME280;70452;39.386;-3.210;2024-01-11T11:24:01;94531.78;;;7.35;100.00
80988;BME280;70452;39.386;-3.210;2024-01-11T11:26:36;94529.41;;;7.17;100.00
80988;BME280;70452;39.386;-3.210;2024-01-11T11:29:06;94536.34;;;7.07;100.00
80988;BME280;70452;39.386;-3.210;2024-01-11T11:31:49;94530.75;;;7.14;100.00
80988;BME280;70452;39.386;-3.210;2024-01-11T11:34:41;94522.75;;;7.02;100.00
80988;BME280;70452;39.386;-3.210;2024-01-11T11:37:22;94524.22;;;6.88;100.00
80988;BME280;70452;39.386;-3.210;2024-01-11T11:39:57;94529.69;;;6.71;100.00
80988;BME280;70452;39.386;-3.210;2024-01-11T11:42:25;94527.59;;;6.56;100.00
80988;BME280;70452;39.386;-3.210;2024-01-11T11:45:05;94527.78;;;6.32;100.00
80988;BME280;70452;39.386;-3.210;2024-01-11T11:47:39;94522.28;;;6.27;100.00
80988;BME280;70452;39.386;-3.210;2024-01-11T11:50:13;94516.16;;;6.15;100.00
80988;BME280;70452;39.386;-3.210;2024-01-11T11:52:58;94518.16;;;6.03;100.00
80988;BME280;70452;39.386;-3.210;2024-01-11T11:55:45;94514.56;;;6.14;100.00
80988;BME280;70452;39.386;-3.210;2024-01-11T11:58:13;94508.84;;;6.32;100.00
80988;BME280;70452;39.386;-3.210;2024-01-11T12:00:43;94508.91;;;6.76;100.00
80988;BME280;70452;39.386;-3.210;2024-01-11T12:03:19;94508.50;;;7.12;100.00
80988;BME280;70452;39.386;-3.210;2024-01-11T12:05:54;94499.19;;;7.30;100.00
80988;BME280;70452;39.386;-3.210;2024-01-11T12:08:26;94492.81;;;7.41;100.00
80988;BME280;70452;39.386;-3.210;2024-01-11T12:10:55;94501.56;;;7.48;100.00
80988;BME280;70452;39.386;-3.210;2024-01-11T12:13:24;94493.53;;;7.31;100.00
80988;BME280;70452;39.386;-3.210;2024-01-11T12:15:56;94494.97;;;7.39;100.00
80988;BME280;70452;39.386;-3.210;2024-01-11T12:18:24;94491.88;;;7.58;100.00
80988;BME280;70452;39.386;-3.210;2024-01-11T12:20:55;94492.50;;;7.70;100.00
80988;BME280;70452;39.386;-3.210;2024-01-11T12:23:28;94484.41;;;7.75;100.00
80988;BME280;70452;39.386;-3.210;2024-01-11T12:26:18;94482.56;;;7.76;100.00
80988;BME280;70452;39.386;-3.210;2024-01-11T12:28:53;94483.88;;;7.73;100.00
80988;BME280;70452;39.386;-3.210;2024-01-11T12:31:26;94473.94;;;7.84;100.00
80988;BME280;70452;39.386;-3.210;2024-01-11T12:33:58;94469.19;;;8.01;100.00
80988;BME280;70452;39.386;-3.210;2024-01-11T12:36:33;94468.72;;;7.77;100.00
80988;BME280;70452;39.386;-3.210;2024-01-11T12:39:06;94474.72;;;7.79;100.00
80988;BME280;70452;39.386;-3.210;2024-01-11T12:41:34;94471.78;;;7.86;100.00
80988;BME280;70452;39.386;-3.210;2024-01-11T12:44:01;94474.72;;;7.79;100.00
80988;BME280;70452;39.386;-3.210;2024-01-11T12:46:47;94476.72;;;7.62;100.00
80988;BME280;70452;39.386;-3.210;2024-01-11T12:49:16;94481.16;;;7.73;100.00
80988;BME280;70452;39.386;-3.210;2024-01-11T12:51:54;94489.13;;;7.85;100.00
80988;BME280;70452;39.386;-3.210;2024-01-11T12:54:32;94484.22;;;7.82;100.00
80988;BME280;70452;39.386;-3.210;2024-01-11T12:57:06;94485.59;;;7.84;100.00
80988;BME280;70452;39.386;-3.210;2024-01-11T12:59:42;94483.66;;;7.80;100.00
80988;BME280;70452;39.386;-3.210;2024-01-11T13:02:16;94477.56;;;8.00;100.00
80988;BME280;70452;39.386;-3.210;2024-01-11T13:04:50;94476.44;;;7.96;100.00
80988;BME280;70452;39.386;-3.210;2024-01-11T13:07:24;94474.69;;;8.12;100.00
80988;BME280;70452;39.386;-3.210;2024-01-11T13:09:55;94474.91;;;8.05;100.00
80988;BME280;70452;39.386;-3.210;2024-01-11T13:12:41;94470.66;;;8.19;100.00
80988;BME280;70452;39.386;-3.210;2024-01-11T13:15:16;94472.03;;;8.22;100.00
80988;BME280;70452;39.386;-3.210;2024-01-11T13:17:56;94473.53;;;8.07;100.00
80988;BME280;70452;39.386;-3.210;2024-01-11T13:20:33;94468.34;;;8.01;100.00
80988;BME280;70452;39.386;-3.210;2024-01-11T13:23:19;94466.72;;;8.00;100.00
80988;BME280;70452;39.386;-3.210;2024-01-11T13:25:59;94462.50;;;7.82;100.00
80988;BME280;70452;39.386;-3.210;2024-01-11T13:28:28;94464.03;;;8.05;100.00
80988;BME280;70452;39.386;-3.210;2024-01-11T13:30:59;94459.50;;;8.16;100.00
80988;BME280;70452;39.386;-3.210;2024-01-11T13:33:29;94466.28;;;8.13;100.00
80988;BME280;70452;39.386;-3.210;2024-01-11T13:36:20;94461.28;;;8.00;100.00
80988;BME280;70452;39.386;-3.210;2024-01-11T13:38:48;94464.53;;;7.97;100.00
80988;BME280;70452;39.386;-3.210;2024-01-11T13:41:23;94464.19;;;7.88;100.00
80988;BME280;70452;39.386;-3.210;2024-01-11T13:44:06;94459.50;;;7.78;100.00